Time;durP1;ratioP1;P1;durP2;ratioP2;P2;SDS_P1;SDS_P2;PMS_P1;PMS_P2;Temp;Humidity;BMP_temperature;BMP_pressure;BME280_temperature;BME280_humidity;BME280_pressure;Samples;Min_cycle;Max_cycle;Signal;HPM_P1;HPM_P2
2022/11/06 00:01:07;;;;;;;;;;;;;;;21.02;36.09;96339.13;5157574;27;20370;-33
2022/11/06 00:03:33;;;;;;;;;;;;;;;21.08;36.29;96342.66;5157180;27;20363;-33
2022/11/06 00:08:42;;;;;;;;;;;;;;;21.08;36.27;96348.19;5157626;27;19951;-34
2022/11/06 00:11:08;;;;;;;;;;;;;;;20.94;36.34;96343.63;5157242;27;20013;-33
2022/11/06 00:13:34;;;;;;;;;;;;;;;20.97;36.09;96350.16;5157153;27;19986;-34
2022/11/06 00:16:03;;;;;;;;;;;;;;;21.03;36.25;96339.88;5138446;27;20408;-33
2022/11/06 00:18:28;;;;;;;;;;;;;;;21.03;36.08;96351.66;5156829;27;19911;-33
2022/11/06 00:20:54;;;;;;;;;;;;;;;21.04;35.98;96347.66;5157280;27;19913;-33
2022/11/06 00:23:19;;;;;;;;;;;;;;;21.06;36.22;96349.91;5155947;27;19997;-33
2022/11/06 00:25:44;;;;;;;;;;;;;;;21.02;36.16;96343.88;5156822;27;19946;-34
2022/11/06 00:28:10;;;;;;;;;;;;;;;21.05;35.88;96349.16;5156859;27;19986;-33
2022/11/06 00:30:35;;;;;;;;;;;;;;;20.98;36.15;96351.66;5156554;27;20333;-34
2022/11/06 00:33:01;;;;;;;;;;;;;;;21.04;36.16;96360.69;5156649;27;19914;-35
2022/11/06 00:35:26;;;;;;;;;;;;;;;20.92;36.13;96351.63;5156656;27;19913;-36
2022/11/06 00:37:51;;;;;;;;;;;;;;;20.96;36.32;96341.13;5156824;27;19979;-36
2022/11/06 00:40:17;;;;;;;;;;;;;;;20.91;36.20;96341.84;5156337;27;19907;-33
2022/11/06 00:57:57;;;;;;;;;;;;;;;20.88;36.23;96342.13;4148977;27;21840;-34
2022/11/06 01:00:22;;;;;;;;;;;;;;;20.86;36.02;96345.38;5155139;27;19915;-34
2022/11/06 01:02:47;;;;;;;;;;;;;;;20.86;36.22;96364.66;5136605;27;19961;-35
2022/11/06 01:05:13;;;;;;;;;;;;;;;20.92;35.99;96350.88;5155371;27;20385;-35
2022/11/06 01:07:38;;;;;;;;;;;;;;;20.89;35.92;96360.91;5155499;27;19911;-34
2022/11/06 01:10:04;;;;;;;;;;;;;;;20.83;36.01;96365.66;5155174;27;19914;-34
2022/11/06 01:12:30;;;;;;;;;;;;;;;20.86;36.40;96372.19;5155228;27;19928;-35
2022/11/06 01:14:55;;;;;;;;;;;;;;;20.84;36.33;96377.44;5155001;27;19907;-34
2022/11/06 01:17:21;;;;;;;;;;;;;;;20.84;35.93;96382.94;5152175;27;20024;-34
2022/11/06 01:19:46;;;;;;;;;;;;;;;20.91;35.84;96387.97;5130770;28;19994;-35
2022/11/06 01:22:11;;;;;;;;;;;;;;;20.95;36.35;96394.00;5134221;28;19914;-36
2022/11/06 01:24:37;;;;;;;;;;;;;;;20.87;36.33;96404.00;5134332;28;20282;-34
2022/11/06 01:27:02;;;;;;;;;;;;;;;20.93;35.95;96394.50;5134344;28;19961;-34
2022/11/06 01:29:27;;;;;;;;;;;;;;;20.84;36.03;96402.22;5134304;28;19911;-34
2022/11/06 01:31:53;;;;;;;;;;;;;;;20.88;36.21;96398.00;5134546;28;19907;-34
2022/11/06 01:34:18;;;;;;;;;;;;;;;20.85;36.09;96401.75;5134179;27;19915;-33
2022/11/06 01:36:45;;;;;;;;;;;;;;;20.86;36.25;96408.75;5134334;28;19953;-34
2022/11/06 01:39:11;;;;;;;;;;;;;;;20.86;36.39;96408.75;5134117;28;19907;-33
2022/11/06 01:41:38;;;;;;;;;;;;;;;20.88;36.34;96417.31;5134025;28;19907;-34
2022/11/06 01:44:22;;;;;;;;;;;;;;;20.84;36.34;96413.25;5134131;28;19914;-35
2022/11/06 01:46:47;;;;;;;;;;;;;;;20.88;36.32;96417.31;5134104;28;20311;-34
2022/11/06 01:49:14;;;;;;;;;;;;;;;20.92;36.42;96417.78;5133940;28;19954;-34
2022/11/06 01:51:51;;;;;;;;;;;;;;;20.79;36.40;96425.75;5115416;28;19908;-34
2022/11/06 01:54:17;;;;;;;;;;;;;;;20.80;36.22;96417.00;5115611;28;20283;-34
2022/11/06 01:56:43;;;;;;;;;;;;;;;20.80;36.25;96419.75;5133840;28;19907;-34
2022/11/06 01:59:12;;;;;;;;;;;;;;;20.83;36.77;96417.25;5090706;28;1222869;-35
2022/11/06 02:01:37;;;;;;;;;;;;;;;20.75;36.26;96414.22;5134648;28;19918;-34
2022/11/06 02:04:12;;;;;;;;;;;;;;;20.87;36.33;96413.03;5134497;28;19911;-34
2022/11/06 02:06:37;;;;;;;;;;;;;;;20.79;36.12;96415.50;5134593;28;19969;-34
2022/11/06 02:09:10;;;;;;;;;;;;;;;20.80;36.21;96421.75;5134772;28;20264;-34
2022/11/06 02:11:35;;;;;;;;;;;;;;;20.79;36.64;96423.75;5134521;28;20460;-34
2022/11/06 02:14:07;;;;;;;;;;;;;;;20.78;36.45;96424.25;5134616;28;19908;-34
2022/11/06 02:16:32;;;;;;;;;;;;;;;20.75;36.33;96430.75;5134665;28;19915;-36
2022/11/06 02:19:16;;;;;;;;;;;;;;;20.83;36.10;96418.03;5134362;28;19911;-36
2022/11/06 02:22:00;;;;;;;;;;;;;;;20.79;36.33;96412.72;5134497;28;19908;-34
2022/11/06 02:24:43;;;;;;;;;;;;;;;20.82;36.20;96419.25;5134539;28;19912;-36
2022/11/06 02:27:09;;;;;;;;;;;;;;;20.86;36.31;96413.53;5134570;28;19911;-35
2022/11/06 02:29:43;;;;;;;;;;;;;;;20.84;36.20;96419.53;5134496;28;20381;-34
2022/11/06 02:32:10;;;;;;;;;;;;;;;20.82;35.96;96424.78;5134496;28;19911;-35
2022/11/06 02:34:38;;;;;;;;;;;;;;;20.78;36.10;96418.72;5134607;28;19942;-34
2022/11/06 02:37:05;;;;;;;;;;;;;;;20.79;36.21;96407.22;5134452;28;20271;-34
2022/11/06 02:39:32;;;;;;;;;;;;;;;20.82;36.08;96416.50;5134463;28;19911;-34
2022/11/06 02:41:58;;;;;;;;;;;;;;;20.80;36.00;96419.75;5134322;28;20365;-34
2022/11/06 03:02:54;;;;;;;;;;;;;;;20.72;36.26;96404.19;4632443;27;19923;-35
2022/11/06 03:05:26;;;;;;;;;;;;;;;20.71;36.43;96402.69;5137931;27;19919;-34
2022/11/06 03:07:59;;;;;;;;;;;;;;;20.70;36.11;96404.69;5137692;27;20363;-34
2022/11/06 03:10:28;;;;;;;;;;;;;;;20.69;35.96;96410.69;5137538;27;19911;-34
2022/11/06 03:12:55;;;;;;;;;;;;;;;20.70;35.78;96412.19;5137973;27;19907;-34
2022/11/06 03:15:23;;;;;;;;;;;;;;;20.67;35.87;96411.16;5137476;27;19914;-34
2022/11/06 03:17:52;;;;;;;;;;;;;;;20.73;36.09;96408.47;5137703;27;19908;-35
2022/11/06 03:20:27;;;;;;;;;;;;;;;20.63;36.09;96409.91;5137307;27;20443;-34
2022/11/06 03:23:02;;;;;;;;;;;;;;;20.66;35.78;96422.69;5137457;27;20282;-34
2022/11/06 03:25:33;;;;;;;;;;;;;;;20.66;35.79;96433.72;5137411;27;19925;-35
2022/11/06 03:28:10;;;;;;;;;;;;;;;20.50;36.21;96437.91;5137435;27;19915;-34
2022/11/06 03:30:41;;;;;;;;;;;;;;;20.56;36.14;96444.19;5137250;27;19914;-36
2022/11/06 03:33:10;;;;;;;;;;;;;;;20.55;36.26;96448.19;5137241;27;19907;-35
2022/11/06 03:35:58;;;;;;;;;;;;;;;20.58;36.08;96444.44;5137212;27;19961;-34
2022/11/06 03:38:29;;;;;;;;;;;;;;;20.56;36.41;96440.66;5126041;27;20009;-33
2022/11/06 03:40:58;;;;;;;;;;;;;;;20.54;36.33;96445.91;5118641;27;19998;-35
2022/11/06 03:43:25;;;;;;;;;;;;;;;20.58;36.22;96438.19;5136908;27;19945;-34
2022/11/06 04:28:40;;;;;;;;;;;;;;;20.54;36.13;96448.66;4957240;27;19950;-34
2022/11/06 04:31:08;;;;;;;;;;;;;;;20.52;36.47;96445.66;5136362;27;20283;-34
2022/11/06 04:33:44;;;;;;;;;;;;;;;20.48;36.53;96450.66;5136130;27;19907;-35
2022/11/06 04:36:16;;;;;;;;;;;;;;;20.48;36.50;96445.91;5136052;27;19908;-34
2022/11/06 04:38:56;;;;;;;;;;;;;;;20.38;36.35;96442.59;5135844;27;19907;-33
2022/11/06 04:41:33;;;;;;;;;;;;;;;20.55;36.43;96442.66;5136411;27;20401;-34
2022/11/06 04:44:00;;;;;;;;;;;;;;;20.51;36.64;96444.91;5132910;27;20367;-34
2022/11/06 04:55:44;;;;;;;;;;;;;;;20.27;36.91;96439.72;5135537;27;19960;-36
2022/11/06 04:58:09;;;;;;;;;;;;;;;20.33;36.86;96442.50;5135871;27;20359;-34
2022/11/06 05:00:36;;;;;;;;;;;;;;;20.28;36.63;96449.47;5135611;27;19915;-34
2022/11/06 05:03:01;;;;;;;;;;;;;;;20.33;36.65;96457.03;5135439;27;19914;-34
2022/11/06 05:05:26;;;;;;;;;;;;;;;20.27;37.24;96464.50;5135369;27;19908;-34
2022/11/06 05:07:51;;;;;;;;;;;;;;;20.37;36.60;96471.38;5135924;27;19907;-34
2022/11/06 05:10:17;;;;;;;;;;;;;;;20.32;36.62;96469.28;5134935;27;19967;-34
2022/11/06 05:12:42;;;;;;;;;;;;;;;20.34;36.64;96482.56;5135358;27;19968;-34
2022/11/06 05:15:08;;;;;;;;;;;;;;;20.42;36.43;96475.38;5135244;27;19945;-34
2022/11/06 05:17:33;;;;;;;;;;;;;;;20.44;36.55;96487.44;5135181;27;19919;-34
2022/11/06 06:05:42;;;;;;;;;;;;;;;20.21;36.69;96502.25;4703499;28;20406;-36
2022/11/06 06:08:08;;;;;;;;;;;;;;;20.30;36.30;96515.84;5134687;28;19954;-35
2022/11/06 06:10:33;;;;;;;;;;;;;;;20.26;36.64;96512.56;5134674;28;20378;-35
2022/11/06 06:12:58;;;;;;;;;;;;;;;20.22;36.48;96509.28;5134640;28;19943;-35
2022/11/06 06:15:24;;;;;;;;;;;;;;;20.24;36.47;96515.06;5134351;28;19915;-35
2022/11/06 06:17:49;;;;;;;;;;;;;;;20.33;36.07;96519.63;5134642;28;20368;-36
2022/11/06 06:20:14;;;;;;;;;;;;;;;20.33;36.21;96519.63;5115997;28;19907;-35
2022/11/06 06:22:40;;;;;;;;;;;;;;;20.31;36.35;96522.84;5137178;27;19990;-36
2022/11/06 06:25:06;;;;;;;;;;;;;;;20.30;36.66;96528.84;5138350;27;19934;-36
2022/11/06 06:27:31;;;;;;;;;;;;;;;20.21;36.54;96535.28;5138624;27;19908;-36
2022/11/06 06:29:56;;;;;;;;;;;;;;;20.13;36.16;96531.47;5138382;27;19918;-35
2022/11/06 06:32:22;;;;;;;;;;;;;;;20.20;36.80;96528.28;5138578;27;19935;-36
2022/11/06 06:34:47;;;;;;;;;;;;;;;20.13;36.53;96517.72;5138804;27;19976;-35
2022/11/06 06:37:12;;;;;;;;;;;;;;;20.20;36.45;96517.25;5138362;27;19914;-35
2022/11/06 06:39:38;;;;;;;;;;;;;;;20.18;36.69;96522.50;5138521;27;19911;-36
2022/11/06 06:42:03;;;;;;;;;;;;;;;20.19;36.26;96523.25;5138174;27;20333;-36
2022/11/06 06:44:28;;;;;;;;;;;;;;;20.16;36.44;96519.47;5138250;27;20313;-35
2022/11/06 06:46:54;;;;;;;;;;;;;;;20.13;36.51;96538.97;5137981;27;19928;-35
2022/11/06 06:49:19;;;;;;;;;;;;;;;20.13;36.38;96542.50;5138084;27;19996;-33
2022/11/06 06:51:46;;;;;;;;;;;;;;;20.15;36.29;96537.25;5137960;27;19907;-35
2022/11/06 06:54:11;;;;;;;;;;;;;;;20.11;36.37;96558.75;5138064;27;19914;-33
2022/11/06 06:56:37;;;;;;;;;;;;;;;20.19;36.07;96561.81;5137901;27;20291;-35
2022/11/06 06:59:02;;;;;;;;;;;;;;;20.24;36.10;96572.88;5137802;27;19908;-35
2022/11/06 07:01:27;;;;;;;;;;;;;;;20.30;36.32;96573.69;5137938;27;19915;-34
2022/11/06 07:03:53;;;;;;;;;;;;;;;20.17;36.41;96565.03;5137722;27;20344;-33
2022/11/06 07:06:18;;;;;;;;;;;;;;;20.29;36.33;96580.41;5137406;27;19919;-34
2022/11/06 07:08:43;;;;;;;;;;;;;;;20.28;36.27;96576.16;5137771;27;20287;-35
2022/11/06 07:11:09;;;;;;;;;;;;;;;20.18;36.32;96579.56;5136563;27;19911;-36
2022/11/06 07:13:35;;;;;;;;;;;;;;;20.20;36.27;96588.09;5135603;27;19907;-35
2022/11/06 07:16:04;;;;;;;;;;;;;;;20.15;36.46;96581.31;5135700;27;19914;-34
2022/11/06 07:18:29;;;;;;;;;;;;;;;20.21;36.21;96593.13;5135443;27;19908;-34
2022/11/06 08:18:49;;;;;;;;;;;;;;;20.06;36.93;96622.75;4364487;27;20420;-34
2022/11/06 08:21:14;;;;;;;;;;;;;;;20.08;36.43;96628.53;5157269;27;19910;-35
2022/11/06 08:23:40;;;;;;;;;;;;;;;20.18;36.37;96621.63;5157078;27;19914;-34
2022/11/06 08:26:06;;;;;;;;;;;;;;;20.08;36.60;96617.53;5157215;27;19907;-34
2022/11/06 08:28:31;;;;;;;;;;;;;;;20.06;36.80;96614.50;5156800;27;19930;-34
2022/11/06 08:43:09;;;;;;;;;;;;;;;20.06;36.53;96612.50;5155066;27;19914;-36
2022/11/06 08:45:41;;;;;;;;;;;;;;;20.10;36.94;96626.06;5153477;27;19919;-35
2022/11/06 08:48:07;;;;;;;;;;;;;;;20.05;37.03;96624.00;5154534;27;19911;-35
2022/11/06 08:50:33;;;;;;;;;;;;;;;19.96;37.05;96615.88;5154510;27;19930;-35
2022/11/06 08:53:03;;;;;;;;;;;;;;;20.07;36.55;96638.03;5154467;27;19919;-34
2022/11/06 08:55:32;;;;;;;;;;;;;;;20.01;36.92;96632.47;5154370;27;19962;-35
2022/11/06 08:57:57;;;;;;;;;;;;;;;20.03;36.98;96642.97;5152301;27;19962;-35
2022/11/06 09:00:23;;;;;;;;;;;;;;;20.04;36.75;96639.00;5154225;27;19918;-34
2022/11/06 09:02:49;;;;;;;;;;;;;;;19.97;36.96;96651.19;5154255;27;19915;-34
2022/11/06 09:05:14;;;;;;;;;;;;;;;19.99;37.21;96650.72;5153949;27;20777;-34
2022/11/06 09:07:39;;;;;;;;;;;;;;;20.15;36.88;96658.41;5154183;27;19910;-36
2022/11/06 09:10:05;;;;;;;;;;;;;;;20.22;36.61;96651.72;5153774;27;20385;-35
2022/11/06 09:12:30;;;;;;;;;;;;;;;20.16;36.78;96651.63;5153799;27;19911;-38
2022/11/06 09:14:55;;;;;;;;;;;;;;;20.13;36.71;96646.38;5154055;27;20367;-35
2022/11/06 09:17:23;;;;;;;;;;;;;;;19.99;36.99;96654.22;5154033;27;20604;-35
2022/11/06 09:19:52;;;;;;;;;;;;;;;20.08;37.04;96645.81;5153832;27;19923;-35
2022/11/06 09:22:17;;;;;;;;;;;;;;;20.04;37.00;96639.00;5153711;27;19907;-35
2022/11/06 09:24:44;;;;;;;;;;;;;;;20.05;36.80;96644.03;5153581;27;19917;-35
2022/11/06 09:27:09;;;;;;;;;;;;;;;20.05;37.23;96646.00;5135250;27;20302;-36
2022/11/06 09:29:34;;;;;;;;;;;;;;;20.06;37.06;96642.03;5153829;27;19907;-35
2022/11/06 09:31:59;;;;;;;;;;;;;;;20.06;36.95;96658.53;5153764;27;19911;-37
2022/11/06 09:34:25;;;;;;;;;;;;;;;20.08;37.21;96645.06;5153535;27;19911;-35
2022/11/06 09:36:50;;;;;;;;;;;;;;;20.01;37.54;96646.25;5153630;27;19911;-35
2022/11/06 09:39:16;;;;;;;;;;;;;;;20.05;37.40;96662.53;5153527;27;20363;-36
2022/11/06 09:41:41;;;;;;;;;;;;;;;20.10;36.78;96659.09;5153650;27;19962;-35
2022/11/06 09:44:06;;;;;;;;;;;;;;;20.15;36.91;96655.66;5153518;27;19915;-37
2022/11/06 09:46:33;;;;;;;;;;;;;;;20.09;36.96;96657.59;5153236;27;19907;-35
2022/11/06 09:49:17;;;;;;;;;;;;;;;20.02;37.00;96652.50;5153407;27;20006;-35
2022/11/06 09:51:42;;;;;;;;;;;;;;;20.14;37.10;96645.88;5153443;27;20335;-35
2022/11/06 09:54:13;;;;;;;;;;;;;;;20.24;36.87;96655.50;5153428;27;20358;-35
2022/11/06 09:56:40;;;;;;;;;;;;;;;20.26;36.59;96649.50;5156307;27;19914;-36
2022/11/06 09:59:09;;;;;;;;;;;;;;;20.08;37.21;96639.53;5155649;27;19951;-36
2022/11/06 10:01:39;;;;;;;;;;;;;;;20.06;37.20;96639.28;5157636;27;19960;-35
2022/11/06 10:04:05;;;;;;;;;;;;;;;19.98;37.39;96635.44;5159129;27;19972;-35
2022/11/06 10:06:31;;;;;;;;;;;;;;;20.13;36.94;96641.63;5141052;27;19907;-37
2022/11/06 10:09:01;;;;;;;;;;;;;;;20.06;36.97;96631.00;5160139;27;20251;-37
2022/11/06 10:11:46;;;;;;;;;;;;;;;20.17;36.98;96649.66;5159635;27;19965;-35
2022/11/06 10:14:22;;;;;;;;;;;;;;;20.34;36.53;96639.56;5106899;27;20359;-36
2022/11/06 10:16:47;;;;;;;;;;;;;;;20.24;36.68;96644.47;5159532;27;20290;-35
2022/11/06 10:19:15;;;;;;;;;;;;;;;20.29;36.59;96648.53;5155351;27;19922;-36
2022/11/06 10:21:43;;;;;;;;;;;;;;;20.30;36.81;96648.03;5157453;27;19930;-38
2022/11/06 10:24:22;;;;;;;;;;;;;;;20.13;37.14;96643.63;5157148;27;20385;-35
2022/11/06 10:26:57;;;;;;;;;;;;;;;20.27;36.88;96653.78;5157308;27;19914;-35
2022/11/06 10:29:34;;;;;;;;;;;;;;;20.04;37.22;96656.28;5157000;27;19954;-36
2022/11/06 10:32:02;;;;;;;;;;;;;;;20.27;36.86;96651.78;5157105;27;20347;-35
2022/11/06 10:34:30;;;;;;;;;;;;;;;20.28;36.94;96656.03;5157267;27;19964;-36
2022/11/06 10:36:59;;;;;;;;;;;;;;;20.20;36.83;96652.19;5157176;27;20363;-32
2022/11/06 10:39:27;;;;;;;;;;;;;;;20.24;36.59;96657.50;5157314;27;19911;-35
2022/11/06 10:42:01;;;;;;;;;;;;;;;19.91;37.53;96646.84;5156796;27;19997;-35
2022/11/06 10:44:29;;;;;;;;;;;;;;;20.17;37.11;96653.16;5157101;27;20386;-35
2022/11/06 10:46:59;;;;;;;;;;;;;;;20.02;37.55;96655.25;5157022;27;19907;-35
2022/11/06 10:49:40;;;;;;;;;;;;;;;20.19;37.16;96647.16;5156929;27;20055;-35
2022/11/06 10:52:11;;;;;;;;;;;;;;;20.20;36.86;96645.94;5156808;27;19915;-36
2022/11/06 10:54:43;;;;;;;;;;;;;;;20.18;37.24;96643.66;5156552;27;20002;-35
2022/11/06 10:57:27;;;;;;;;;;;;;;;20.14;37.24;96640.38;5156692;27;19997;-36
2022/11/06 10:59:53;;;;;;;;;;;;;;;20.33;36.94;96630.53;5156751;27;19914;-35
2022/11/06 11:02:39;;;;;;;;;;;;;;;20.11;37.36;96635.84;5156740;27;20026;-35
2022/11/06 11:05:12;;;;;;;;;;;;;;;20.14;37.46;96637.63;5156407;27;19922;-35
2022/11/06 11:07:37;;;;;;;;;;;;;;;20.22;37.21;96638.69;5155923;27;19914;-35
2022/11/06 11:10:21;;;;;;;;;;;;;;;20.34;36.89;96629.31;5156561;27;19941;-35
2022/11/06 11:12:47;;;;;;;;;;;;;;;20.28;36.98;96630.47;5154784;27;19911;-34
2022/11/06 11:15:19;;;;;;;;;;;;;;;20.23;37.32;96625.69;5156327;27;19911;-35
2022/11/06 11:18:07;;;;;;;;;;;;;;;20.24;37.15;96625.22;5156113;27;20290;-35
2022/11/06 11:20:34;;;;;;;;;;;;;;;20.26;37.08;96619.22;5156153;27;19919;-35
2022/11/06 11:23:09;;;;;;;;;;;;;;;20.02;37.50;96625.75;5156096;27;19907;-35
2022/11/06 11:25:34;;;;;;;;;;;;;;;20.20;37.31;96619.16;5156233;27;19915;-34
2022/11/06 11:28:01;;;;;;;;;;;;;;;20.32;37.19;96618.00;5156433;27;19945;-35
2022/11/06 11:30:28;;;;;;;;;;;;;;;20.23;37.36;96623.69;5155825;27;19914;-35
2022/11/06 11:32:53;;;;;;;;;;;;;;;20.21;37.41;96626.16;5156174;27;19935;-36
2022/11/06 11:35:20;;;;;;;;;;;;;;;20.41;37.07;96617.13;5156119;27;19994;-35
2022/11/06 11:37:46;;;;;;;;;;;;;;;20.10;37.51;96623.31;5137257;27;20317;-35
2022/11/06 11:40:40;;;;;;;;;;;;;;;20.29;37.24;96632.75;5150337;27;19932;-35
2022/11/06 11:43:20;;;;;;;;;;;;;;;20.13;37.62;96625.09;5116687;27;19915;-36
2022/11/06 11:46:02;;;;;;;;;;;;;;;20.29;37.29;96640.25;5129941;27;19911;-35
2022/11/06 11:48:39;;;;;;;;;;;;;;;20.14;36.90;96637.63;5155546;27;19907;-35
2022/11/06 11:51:14;;;;;;;;;;;;;;;19.99;37.90;96639.69;5155724;27;19941;-35
2022/11/06 11:53:40;;;;;;;;;;;;;;;20.14;37.66;96640.38;5136629;27;19910;-36
2022/11/06 11:56:06;;;;;;;;;;;;;;;20.31;37.56;96646.03;5155415;27;19914;-35
2022/11/06 11:58:31;;;;;;;;;;;;;;;20.16;37.46;96637.13;5136268;27;19918;-35
2022/11/06 12:00:59;;;;;;;;;;;;;;;20.26;37.39;96639.25;5116109;27;19933;-36
2022/11/06 12:03:27;;;;;;;;;;;;;;;20.19;37.67;96639.66;5134312;27;20019;-37
2022/11/06 12:05:52;;;;;;;;;;;;;;;20.23;37.60;96651.22;5134112;27;19912;-36
2022/11/06 12:08:22;;;;;;;;;;;;;;;20.20;37.80;96657.69;5134170;27;19922;-36
2022/11/06 12:10:48;;;;;;;;;;;;;;;20.23;37.65;96651.22;5134258;27;20007;-36
2022/11/06 12:13:16;;;;;;;;;;;;;;;20.27;37.45;96646.28;5132424;27;19970;-38
2022/11/06 12:15:48;;;;;;;;;;;;;;;20.39;37.34;96649.94;5134199;27;19917;-35
2022/11/06 12:18:15;;;;;;;;;;;;;;;20.35;37.39;96646.59;5140940;27;20426;-37
2022/11/06 12:20:51;;;;;;;;;;;;;;;20.30;37.69;96641.78;5155944;27;19959;-36
2022/11/06 12:23:35;;;;;;;;;;;;;;;20.44;37.50;96624.41;5156761;27;19907;-35
2022/11/06 12:26:06;;;;;;;;;;;;;;;20.16;37.65;96626.84;5156932;27;19907;-36
2022/11/06 12:28:34;;;;;;;;;;;;;;;20.38;37.36;96623.63;5156912;27;19914;-35
2022/11/06 12:31:04;;;;;;;;;;;;;;;20.16;37.57;96624.09;5156870;27;19959;-35
2022/11/06 12:33:30;;;;;;;;;;;;;;;20.34;37.58;96615.53;5156859;27;20282;-35
2022/11/06 12:35:58;;;;;;;;;;;;;;;20.41;37.57;96606.09;5157081;27;20442;-35
2022/11/06 12:38:42;;;;;;;;;;;;;;;20.24;37.82;96608.69;5156687;27;19911;-37
2022/11/06 12:41:23;;;;;;;;;;;;;;;20.13;38.06;96605.06;5156544;27;19907;-35
2022/11/06 12:43:49;;;;;;;;;;;;;;;20.27;37.72;96601.47;5156417;27;19962;-35
2022/11/06 12:46:30;;;;;;;;;;;;;;;20.32;37.75;96593.22;5156542;27;19931;-35
2022/11/06 12:49:24;;;;;;;;;;;;;;;20.32;37.76;96601.50;5156423;27;20419;-35
2022/11/06 12:51:56;;;;;;;;;;;;;;;20.27;37.97;96598.69;5134246;27;19989;-35
2022/11/06 12:54:30;;;;;;;;;;;;;;;20.27;37.87;96601.47;5156381;27;20422;-35
2022/11/06 12:56:55;;;;;;;;;;;;;;;20.36;37.62;96582.03;5156524;27;19910;-35
2022/11/06 12:59:33;;;;;;;;;;;;;;;20.30;37.72;96578.44;5156498;27;19998;-35
2022/11/06 13:02:17;;;;;;;;;;;;;;;20.32;37.83;96593.22;5156240;27;19959;-36
2022/11/06 13:04:57;;;;;;;;;;;;;;;20.38;38.06;96588.56;5156202;27;19925;-35
2022/11/06 13:07:29;;;;;;;;;;;;;;;20.47;37.51;96600.66;5156275;27;19961;-35
2022/11/06 13:10:06;;;;;;;;;;;;;;;20.21;38.19;96609.66;5156335;27;19907;-36
2022/11/06 13:12:35;;;;;;;;;;;;;;;20.29;38.05;96620.97;5156422;27;19942;-35
2022/11/06 13:15:00;;;;;;;;;;;;;;;20.37;37.97;96622.88;5156078;27;20385;-35
2022/11/06 13:17:39;;;;;;;;;;;;;;;20.44;37.62;96630.69;5156107;27;19907;-35
2022/11/06 13:20:05;;;;;;;;;;;;;;;20.37;37.98;96622.88;5155903;27;19915;-37
2022/11/06 13:22:30;;;;;;;;;;;;;;;20.38;37.96;96629.88;5156246;27;19907;-34
2022/11/06 13:24:55;;;;;;;;;;;;;;;20.51;37.61;96631.50;5156014;27;19922;-34
2022/11/06 13:27:32;;;;;;;;;;;;;;;20.43;37.74;96631.91;5155672;27;20351;-34
2022/11/06 13:30:17;;;;;;;;;;;;;;;20.42;37.87;96651.69;5155794;27;19938;-36
2022/11/06 13:33:06;;;;;;;;;;;;;;;20.48;37.79;96646.25;5155077;27;19906;-34
2022/11/06 13:35:33;;;;;;;;;;;;;;;20.50;37.69;96647.28;5141809;27;19966;-36
2022/11/06 13:37:59;;;;;;;;;;;;;;;20.43;38.15;96653.97;5155792;27;19918;-34
2022/11/06 13:40:41;;;;;;;;;;;;;;;20.43;37.96;96645.69;5155964;27;19993;-36
2022/11/06 13:43:18;;;;;;;;;;;;;;;20.33;38.22;96657.34;5156108;27;19932;-35
2022/11/06 13:45:46;;;;;;;;;;;;;;;20.44;38.01;96647.22;5155648;27;19906;-34
2022/11/06 13:48:11;;;;;;;;;;;;;;;20.56;37.62;96653.56;5137268;27;19907;-35
2022/11/06 13:50:39;;;;;;;;;;;;;;;20.50;37.93;96661.06;5155428;27;19914;-35
2022/11/06 13:53:37;;;;;;;;;;;;;;;20.42;38.10;96654.44;5155536;27;19945;-34
2022/11/06 13:56:25;;;;;;;;;;;;;;;20.43;37.94;96653.19;5098543;27;19907;-34
2022/11/06 13:59:15;;;;;;;;;;;;;;;20.43;37.90;96659.47;5051446;28;19908;-36
2022/11/06 14:02:00;;;;;;;;;;;;;;;20.47;37.93;96664.00;5051607;28;19915;-35
2022/11/06 14:04:36;;;;;;;;;;;;;;;20.51;37.83;96659.81;5050995;28;20342;-35
2022/11/06 14:07:02;;;;;;;;;;;;;;;20.45;38.00;96656.22;5051437;28;20312;-34
2022/11/06 14:09:30;;;;;;;;;;;;;;;20.41;38.07;96663.94;5051372;28;20286;-34
2022/11/06 14:11:58;;;;;;;;;;;;;;;20.38;38.19;96662.19;5051332;28;19935;-35
2022/11/06 14:14:26;;;;;;;;;;;;;;;20.41;38.07;96661.19;5051637;28;20021;-34
2022/11/06 14:17:11;;;;;;;;;;;;;;;20.34;38.17;96659.59;5051167;28;19916;-36
2022/11/06 14:19:36;;;;;;;;;;;;;;;20.46;37.96;96668.75;5029053;28;19925;-34
2022/11/06 14:22:22;;;;;;;;;;;;;;;20.36;38.24;96670.16;5031580;28;20000;-35
2022/11/06 14:24:47;;;;;;;;;;;;;;;20.47;37.87;96669.53;5024308;28;20007;-36
2022/11/06 14:27:21;;;;;;;;;;;;;;;20.53;37.83;96673.06;5031235;28;20003;-35
2022/11/06 14:30:00;;;;;;;;;;;;;;;20.27;38.36;96681.31;5031379;28;20369;-35
2022/11/06 14:32:33;;;;;;;;;;;;;;;20.39;38.20;96680.97;5031782;28;19944;-34
2022/11/06 14:35:17;;;;;;;;;;;;;;;20.50;37.81;96679.56;5046164;27;19907;-34
2022/11/06 14:37:42;;;;;;;;;;;;;;;20.50;37.97;96679.56;5134615;27;19911;-34
2022/11/06 14:40:11;;;;;;;;;;;;;;;20.53;37.79;96679.34;5134472;27;19918;-35
2022/11/06 14:42:38;;;;;;;;;;;;;;;20.38;38.02;96700.75;5135256;27;19929;-34
2022/11/06 14:45:09;;;;;;;;;;;;;;;20.34;38.24;96700.91;5138034;27;19918;-34
2022/11/06 14:47:37;;;;;;;;;;;;;;;20.46;38.02;96692.81;5138092;27;19952;-34
2022/11/06 14:50:18;;;;;;;;;;;;;;;20.41;38.26;96689.50;5138244;27;19911;-34
2022/11/06 14:52:45;;;;;;;;;;;;;;;20.52;37.93;96693.63;5138167;27;20272;-34
2022/11/06 14:55:37;;;;;;;;;;;;;;;20.52;37.90;96699.13;5137922;27;19907;-35
2022/11/06 14:58:21;;;;;;;;;;;;;;;20.31;38.23;96701.13;5133075;27;20359;-34
2022/11/06 15:00:55;;;;;;;;;;;;;;;20.38;38.17;96693.25;5137796;27;20370;-35
2022/11/06 15:03:23;;;;;;;;;;;;;;;20.43;38.14;96697.28;5137925;27;19914;-34
2022/11/06 15:05:48;;;;;;;;;;;;;;;20.49;37.87;96708.38;5137792;27;19912;-34
2022/11/06 15:08:33;;;;;;;;;;;;;;;20.58;37.88;96708.97;5137566;27;19907;-35
2022/11/06 15:10:59;;;;;;;;;;;;;;;20.50;37.95;96707.13;5137647;27;20295;-34
2022/11/06 15:13:25;;;;;;;;;;;;;;;20.48;38.14;96702.09;5137551;27;19907;-34
2022/11/06 15:15:53;;;;;;;;;;;;;;;20.37;38.18;96699.22;5137657;27;19907;-34
2022/11/06 15:18:21;;;;;;;;;;;;;;;20.38;38.10;96715.28;5137554;27;20278;-34
2022/11/06 15:20:54;;;;;;;;;;;;;;;20.41;38.19;96711.53;5137186;27;19915;-34
2022/11/06 15:23:29;;;;;;;;;;;;;;;20.39;38.22;96705.00;5137056;27;19907;-35
2022/11/06 15:26:04;;;;;;;;;;;;;;;20.35;38.16;96702.47;5137482;27;19915;-34
2022/11/06 15:28:41;;;;;;;;;;;;;;;20.51;38.05;96709.41;5137388;27;20389;-34
2022/11/06 15:31:11;;;;;;;;;;;;;;;20.40;38.17;96703.75;5137433;27;19911;-35
2022/11/06 15:34:05;;;;;;;;;;;;;;;20.35;38.14;96712.69;5137353;27;19911;-34
2022/11/06 15:36:42;;;;;;;;;;;;;;;20.35;38.25;96707.19;5033956;28;19909;-34
2022/11/06 15:39:20;;;;;;;;;;;;;;;20.38;38.23;96711.75;5034103;28;19909;-35
2022/11/06 15:41:46;;;;;;;;;;;;;;;20.38;38.18;96707.00;5033943;28;20346;-34
2022/11/06 15:44:11;;;;;;;;;;;;;;;20.43;38.12;96709.06;5033801;28;19913;-34
2022/11/06 15:46:36;;;;;;;;;;;;;;;20.50;37.98;96704.38;5034050;28;19909;-36
2022/11/06 15:49:18;;;;;;;;;;;;;;;20.46;37.99;96701.06;5034174;28;19956;-35
2022/11/06 15:51:57;;;;;;;;;;;;;;;20.49;37.94;96700.84;5033870;28;19936;-34
2022/11/06 15:54:34;;;;;;;;;;;;;;;20.40;38.27;96710.00;5033756;28;19908;-34
2022/11/06 15:57:01;;;;;;;;;;;;;;;20.49;38.12;96708.38;5033750;28;20401;-34
2022/11/06 15:59:26;;;;;;;;;;;;;;;20.42;38.26;96713.03;5033639;28;20324;-36
2022/11/06 16:01:52;;;;;;;;;;;;;;;20.35;38.50;96719.00;5033710;28;19916;-35
2022/11/06 16:04:19;;;;;;;;;;;;;;;20.43;38.18;96725.59;5033551;28;19940;-35
2022/11/06 16:06:46;;;;;;;;;;;;;;;20.48;37.99;96734.41;5033523;28;19909;-35
2022/11/06 16:09:17;;;;;;;;;;;;;;;20.46;38.28;96734.88;5033467;28;20388;-34
2022/11/06 16:11:43;;;;;;;;;;;;;;;20.42;38.23;96734.31;5034540;27;20000;-36
2022/11/06 16:14:12;;;;;;;;;;;;;;;20.40;38.27;96726.53;5136131;27;20375;-35
2022/11/06 16:16:40;;;;;;;;;;;;;;;20.47;38.17;96727.38;5136615;27;19922;-34
2022/11/06 16:19:23;;;;;;;;;;;;;;;20.41;38.19;96728.06;5136391;27;19968;-35
2022/11/06 16:21:52;;;;;;;;;;;;;;;20.48;38.08;96731.66;5136362;27;20002;-34
2022/11/06 16:24:17;;;;;;;;;;;;;;;20.42;38.22;96729.56;5136226;27;19911;-36
2022/11/06 16:26:52;;;;;;;;;;;;;;;20.46;38.16;96734.13;5136382;27;19975;-35